createdAt,value
2022-12-12T00:00:18.065Z,0.00
2022-12-12T00:05:22.641Z,0.00
2022-12-12T00:10:28.897Z,0.00
2022-12-12T00:15:17.655Z,0.00
2022-12-12T00:20:24.523Z,0.00
2022-12-12T00:25:29.856Z,0.00
2022-12-12T00:30:18.805Z,0.00
2022-12-12T00:35:24.903Z,0.00
2022-12-12T00:40:35.927Z,0.00
2022-12-12T00:45:20.055Z,0.00
2022-12-12T00:50:26.060Z,0.00
2022-12-12T00:55:32.091Z,0.00
2022-12-12T01:00:21.961Z,0.00
2022-12-12T01:05:27.565Z,0.00
2022-12-12T01:10:16.246Z,0.00
2022-12-12T01:15:22.407Z,0.00
2022-12-12T01:20:29.685Z,0.00
2022-12-12T01:25:17.359Z,0.00
2022-12-12T01:30:23.617Z,0.00
2022-12-12T01:35:29.482Z,0.00
2022-12-12T01:40:19.502Z,0.00
2022-12-12T01:45:24.693Z,0.00
2022-12-12T01:50:30.667Z,0.00
2022-12-12T01:55:19.682Z,0.00
2022-12-12T02:00:27.059Z,0.00
2022-12-12T02:05:32.803Z,0.00
2022-12-12T02:10:19.834Z,0.00
2022-12-12T02:15:26.205Z,0.00
2022-12-12T02:20:33.201Z,0.00
2022-12-12T02:25:21.083Z,0.00
2022-12-12T02:30:27.201Z,0.00
2022-12-12T02:35:16.102Z,0.00
2022-12-12T02:40:23.112Z,0.00
2022-12-12T02:45:28.485Z,0.00
2022-12-12T02:50:17.310Z,0.00
2022-12-12T02:55:23.349Z,0.00
2022-12-12T03:00:30.692Z,0.00
2022-12-12T03:05:17.934Z,0.00
2022-12-12T03:10:23.894Z,0.00
2022-12-12T03:15:30.118Z,0.00
2022-12-12T03:20:20.064Z,0.00
2022-12-12T03:25:25.048Z,0.00
2022-12-12T03:30:31.209Z,0.00
2022-12-12T03:35:20.137Z,0.00
2022-12-12T03:40:27.321Z,0.00
2022-12-12T03:45:32.434Z,0.00
2022-12-12T03:50:21.329Z,0.00
2022-12-12T03:55:27.483Z,0.00
2022-12-12T04:00:17.249Z,0.00
2022-12-12T04:05:23.103Z,0.00
2022-12-12T04:10:28.568Z,0.00
2022-12-12T04:15:17.668Z,0.00
2022-12-12T04:20:24.832Z,0.00
2022-12-12T04:25:29.702Z,0.00
2022-12-12T04:30:19.658Z,0.00
2022-12-12T04:35:24.855Z,0.00
2022-12-12T04:40:50.830Z,0.00
2022-12-12T04:45:20.012Z,0.00
2022-12-12T04:50:26.078Z,0.00
2022-12-12T04:55:32.036Z,0.00
2022-12-12T05:00:22.141Z,0.00
2022-12-12T05:05:26.576Z,0.00
2022-12-12T05:10:32.392Z,0.00
2022-12-12T05:15:21.284Z,0.00
2022-12-12T05:20:44.553Z,0.00
2022-12-12T05:25:16.508Z,0.00
2022-12-12T05:30:22.536Z,0.00
2022-12-12T05:35:28.530Z,0.00
2022-12-12T05:40:18.196Z,0.00
2022-12-12T05:45:23.755Z,0.00
2022-12-12T05:50:29.988Z,0.00
2022-12-12T05:55:18.700Z,0.00
2022-12-12T06:00:25.786Z,0.00
2022-12-12T06:05:30.183Z,0.00
2022-12-12T06:10:19.443Z,0.00
2022-12-12T06:15:25.571Z,0.00
2022-12-12T06:20:35.915Z,0.00
2022-12-12T06:25:20.577Z,0.00
2022-12-12T06:30:26.661Z,0.00
2022-12-12T06:35:32.853Z,0.00
2022-12-12T06:40:32.606Z,0.00
2022-12-12T06:45:27.840Z,0.00
2022-12-12T06:50:23.445Z,0.00
2022-12-12T06:55:22.961Z,0.40
2022-12-12T07:00:29.895Z,1.51
2022-12-12T07:05:17.435Z,2.72
2022-12-12T07:10:23.239Z,4.18
2022-12-12T07:15:29.253Z,5.65
2022-12-12T07:20:19.490Z,8.13
2022-12-12T07:25:24.308Z,10.42
2022-12-12T07:30:30.349Z,12.77
2022-12-12T07:35:19.483Z,15.42
2022-12-12T07:40:33.949Z,17.91
2022-12-12T07:45:31.492Z,20.12
2022-12-12T07:50:20.664Z,23.47
2022-12-12T07:55:26.776Z,26.56
2022-12-12T08:00:47.085Z,28.41
2022-12-12T08:05:22.624Z,30.39
2022-12-12T08:10:27.034Z,32.85
2022-12-12T08:15:16.115Z,34.41
2022-12-12T08:20:23.080Z,37.24
2022-12-12T08:25:28.079Z,84.00
2022-12-12T08:30:17.136Z,97.48
2022-12-12T08:35:23.061Z,106.99
2022-12-12T08:40:30.225Z,107.20
2022-12-12T08:45:18.252Z,100.10
2022-12-12T08:50:24.381Z,116.95
2022-12-12T08:55:30.352Z,126.41
2022-12-12T09:00:19.924Z,120.58
2022-12-12T09:05:24.861Z,125.01
2022-12-12T09:10:31.499Z,139.86
2022-12-12T09:15:20.649Z,143.17
2022-12-12T09:20:27.867Z,146.62
2022-12-12T09:25:32.957Z,150.97
2022-12-12T09:30:21.674Z,154.81
2022-12-12T09:35:27.869Z,156.81
2022-12-12T09:40:17.745Z,160.74
2022-12-12T09:45:23.064Z,165.55
2022-12-12T09:50:28.935Z,173.38
2022-12-12T09:55:18.054Z,189.08
2022-12-12T10:00:36.229Z,193.01
2022-12-12T10:05:29.488Z,195.09
2022-12-12T10:10:18.215Z,243.88
2022-12-12T10:15:24.207Z,205.03
2022-12-12T10:20:31.394Z,197.47
2022-12-12T10:25:19.329Z,183.33
2022-12-12T10:30:25.326Z,186.79
2022-12-12T10:35:32.132Z,186.00
2022-12-12T10:40:21.147Z,184.26
2022-12-12T10:45:26.645Z,228.22
2022-12-12T10:50:33.610Z,204.81
2022-12-12T10:55:21.702Z,223.15
2022-12-12T11:00:28.722Z,188.51
2022-12-12T11:05:16.364Z,205.35
2022-12-12T11:10:22.406Z,237.20
2022-12-12T11:15:27.889Z,190.47
2022-12-12T11:20:17.981Z,174.78
2022-12-12T11:25:23.048Z,172.28
2022-12-12T11:30:29.317Z,172.27
2022-12-12T11:35:18.074Z,174.81
2022-12-12T11:40:38.211Z,164.21
2022-12-12T11:45:30.211Z,144.78
2022-12-12T11:50:19.212Z,179.52
2022-12-12T11:55:25.316Z,246.53
2022-12-12T12:00:32.405Z,199.01
2022-12-12T12:05:20.836Z,169.76
2022-12-12T12:10:26.535Z,161.21
2022-12-12T12:15:32.615Z,154.55
2022-12-12T12:20:50.911Z,152.87
2022-12-12T12:25:27.651Z,142.84
2022-12-12T12:30:16.632Z,79.52
2022-12-12T12:35:22.785Z,101.75
2022-12-12T12:40:44.091Z,102.53
2022-12-12T12:45:17.945Z,107.22
2022-12-12T12:50:23.950Z,108.68
2022-12-12T12:55:29.924Z,109.05
2022-12-12T13:00:19.833Z,108.40
2022-12-12T13:05:24.402Z,126.54
2022-12-12T13:10:30.174Z,123.07
2022-12-12T13:15:19.155Z,114.10
2022-12-12T13:20:26.329Z,105.50
2022-12-12T13:25:31.434Z,83.81
2022-12-12T13:30:20.407Z,67.18
2022-12-12T13:35:26.688Z,60.35
2022-12-12T13:40:33.517Z,53.01
2022-12-12T13:45:21.546Z,49.49
2022-12-12T13:50:27.600Z,46.10
2022-12-12T13:55:16.621Z,41.76
2022-12-12T14:00:24.379Z,39.09
2022-12-12T14:05:28.824Z,37.67
2022-12-12T14:10:16.886Z,35.72
2022-12-12T14:15:22.974Z,33.26
2022-12-12T14:20:29.854Z,31.32
2022-12-12T14:25:18.127Z,30.90
2022-12-12T14:30:24.090Z,26.70
2022-12-12T14:35:30.460Z,23.59
2022-12-12T14:40:20.308Z,21.90
2022-12-12T14:45:25.304Z,19.48
2022-12-12T14:50:31.372Z,15.51
2022-12-12T14:55:20.350Z,11.67
2022-12-12T15:00:27.216Z,9.10
2022-12-12T15:05:31.742Z,6.65
2022-12-12T15:10:20.871Z,4.28
2022-12-12T15:15:26.728Z,2.41
2022-12-12T15:20:16.787Z,1.04
2022-12-12T15:25:21.908Z,0.08
2022-12-12T15:30:27.954Z,0.00
2022-12-12T15:35:17.023Z,0.00
2022-12-12T15:40:24.066Z,0.00
2022-12-12T15:45:29.069Z,0.00
2022-12-12T15:50:18.154Z,0.00
2022-12-12T15:55:24.247Z,0.00
2022-12-12T16:00:37.582Z,0.00
2022-12-12T16:05:19.930Z,0.00
2022-12-12T16:10:25.447Z,0.00
2022-12-12T16:15:31.395Z,0.00
2022-12-12T16:20:25.744Z,0.00
2022-12-12T16:25:26.579Z,0.00
2022-12-12T16:30:32.584Z,0.00
2022-12-12T16:35:21.580Z,0.00
2022-12-12T16:40:35.465Z,0.00
2022-12-12T16:45:16.751Z,0.00
2022-12-12T16:50:22.820Z,0.00
2022-12-12T16:55:28.820Z,0.00
2022-12-12T17:00:19.075Z,0.00
2022-12-12T17:05:23.244Z,0.00
2022-12-12T17:10:29.066Z,0.00
2022-12-12T17:15:18.130Z,0.00
2022-12-12T17:20:27.013Z,0.00
2022-12-12T17:25:30.261Z,0.00
2022-12-12T17:30:19.323Z,0.00
2022-12-12T17:35:25.283Z,0.00
2022-12-12T17:40:32.250Z,0.00
2022-12-12T17:45:21.188Z,0.00
2022-12-12T17:50:26.571Z,0.00
2022-12-12T17:55:53.431Z,0.00
2022-12-12T18:00:24.367Z,0.00
2022-12-12T18:05:29.379Z,0.00
2022-12-12T18:10:16.017Z,0.00
2022-12-12T18:15:21.908Z,0.00
2022-12-12T18:20:31.261Z,0.00
2022-12-12T18:25:17.025Z,0.00
2022-12-12T18:30:23.057Z,0.00
2022-12-12T18:35:29.141Z,0.00
2022-12-12T18:40:34.805Z,0.00
2022-12-12T18:45:24.180Z,0.00
2022-12-12T18:50:30.382Z,0.00
2022-12-12T18:55:19.370Z,0.00
2022-12-12T19:00:26.737Z,0.00
2022-12-12T19:05:30.701Z,0.00
2022-12-12T19:10:20.503Z,0.00
2022-12-12T19:15:26.830Z,0.00
2022-12-12T19:20:46.804Z,0.00
2022-12-12T19:25:21.756Z,0.00
2022-12-12T19:30:27.892Z,0.00
2022-12-12T19:35:16.902Z,0.00
2022-12-12T19:40:23.977Z,0.00
2022-12-12T19:45:28.916Z,0.00
2022-12-12T19:50:18.035Z,0.00
2022-12-12T19:55:24.065Z,0.00
2022-12-12T20:00:31.040Z,0.00
2022-12-12T20:05:18.533Z,0.00
2022-12-12T20:10:24.308Z,0.00
2022-12-12T20:15:30.568Z,0.00
2022-12-12T20:20:20.293Z,0.00
2022-12-12T20:25:25.588Z,0.00
2022-12-12T20:30:31.698Z,0.00
2022-12-12T20:35:20.599Z,0.00
2022-12-12T20:40:27.499Z,0.00
2022-12-12T20:45:32.701Z,0.00
2022-12-12T20:50:21.774Z,0.00
2022-12-12T20:55:28.657Z,0.00
2022-12-12T21:00:17.935Z,0.00
2022-12-12T21:05:22.802Z,0.00
2022-12-12T21:10:28.982Z,0.00
2022-12-12T21:15:18.296Z,0.00
2022-12-12T21:20:25.784Z,0.00
2022-12-12T21:25:30.083Z,0.00
2022-12-12T21:30:19.062Z,0.00
2022-12-12T21:35:25.125Z,0.00
2022-12-12T21:40:47.053Z,0.00
2022-12-12T21:45:20.250Z,0.00
2022-12-12T21:50:30.657Z,0.00
2022-12-12T21:55:32.432Z,0.00
2022-12-12T22:00:22.617Z,0.00
2022-12-12T22:05:28.582Z,0.00
2022-12-12T22:10:16.600Z,0.00
2022-12-12T22:15:22.758Z,0.00
2022-12-12T22:20:34.636Z,0.00
2022-12-12T22:25:17.674Z,0.00
2022-12-12T22:30:23.744Z,0.00
2022-12-12T22:35:29.868Z,0.00
2022-12-12T22:40:20.233Z,0.00
2022-12-12T22:45:24.992Z,0.00
2022-12-12T22:50:30.983Z,0.00
2022-12-12T22:55:19.980Z,0.00
2022-12-12T23:00:35.149Z,0.00
2022-12-12T23:05:31.484Z,0.00
2022-12-12T23:10:20.303Z,0.00
2022-12-12T23:15:27.752Z,0.00
2022-12-12T23:20:33.470Z,0.00
2022-12-12T23:25:21.509Z,0.00
2022-12-12T23:30:27.484Z,0.00
2022-12-12T23:35:16.955Z,0.00
2022-12-12T23:40:23.823Z,0.00
2022-12-12T23:45:29.064Z,0.00
2022-12-12T23:50:17.669Z,0.00
2022-12-12T23:55:23.769Z,0.00
